Capt. Troy Green — WDI5675 — position and weather

sailwx.info

Track history (hours):
 
Tides and Currents Weather Stations Pressure Air Temp Water Temp Dewpoint Dewpoint Depression Visibility Wind Speed Wind Dir Waves Ship Positions

Capt. Troy Green

Owner: Blessey Enterprises, Inc., Harahan, LA. More information available from US FCC via Universal Licensing System and Coast Guard Vessel Documentation Center.

Last reported at 2017-Nov-20 00:27 UTC. Time now 2017-Nov-25 00:12 UTC.
Position N 30°04' W 093°39'.

Length 22 m; draft 2.7 m.

Type: Other ship. MMSI: 367710960.

Date/timePositionNaut miles runAvg speedWind from/ knotsBaromVisibWave heightAir tempDewpointWater temp
2017-Nov-20 00:27N 30°04' W 093°39'5 5.8
2017-Nov-19 23:33N 30°04' W 093°33'0 5.8
2017-Nov-19 23:29N 30°04' W 093°32'3 5.9
2017-Nov-19 23:00N 30°04' W 093°29'3 6.1
2017-Nov-19 22:31N 30°04' W 093°25'3 6.0
2017-Nov-19 22:01N 30°04' W 093°22'2 4.1
2017-Nov-19 21:30N 30°05' W 093°20'2 4.4
2017-Nov-19 21:01N 30°05' W 093°18'1 2.1
2017-Nov-19 20:30N 30°05' W 093°17'0 0.7
2017-Nov-19 20:00N 30°04' W 093°16'0 0.0
2017-Nov-19 19:30N 30°04' W 093°16'0 0.0
2017-Nov-19 19:00N 30°04' W 093°16'0 0.0
2017-Nov-19 18:30N 30°04' W 093°16'0 0.0
2017-Nov-19 18:00N 30°04' W 093°16'0 0.0
2017-Nov-19 17:30N 30°04' W 093°16'0 0.0
2017-Nov-19 17:00N 30°04' W 093°16'0 0.0
2017-Nov-19 16:30N 30°04' W 093°16'1 1.2
2017-Nov-19 15:59N 30°04' W 093°16'0 0.9
2017-Nov-19 15:28N 30°03' W 093°16'1 3.1
2017-Nov-19 15:00N 30°02' W 093°15'3 5.3
2017-Nov-19 14:31N 29°60' W 093°13'1 2.4
2017-Nov-19 14:00N 29°59' W 093°12'2 4.7
2017-Nov-19 13:30N 29°57' W 093°11'3 5.5
2017-Nov-19 13:00N 29°56' W 093°08'40 5.7
2017-Nov-19 06:02N 29°52' W 092°22'1 5.9
2017-Nov-19 05:56N 29°51' W 092°22'3 6.2
2017-Nov-19 05:26N 29°50' W 092°18'3 6.0
2017-Nov-19 05:01N 29°49' W 092°16'3 6.4
2017-Nov-19 04:31N 29°47' W 092°13'1 2.2
2017-Nov-19 04:00N 29°47' W 092°11'1 1.2
2017-Nov-19 03:30N 29°47' W 092°11'3 5.3
2017-Nov-19 03:00N 29°47' W 092°08'3 6.0
2017-Nov-19 02:30N 29°48' W 092°05'3 6.2
2017-Nov-19 02:00N 29°49' W 092°01'3 6.7
2017-Nov-19 01:30N 29°50' W 091°58'54 5.8
2017-Nov-18 16:11N 29°36' W 090°58'1 6.5
2017-Nov-18 16:00N 29°35' W 090°57'3 6.6
2017-Nov-18 15:30N 29°33' W 090°54'3 6.5
2017-Nov-18 14:58N 29°32' W 090°50'3 5.7
2017-Nov-18 14:30N 29°32' W 090°47'2 4.6
2017-Nov-18 14:00N 29°33' W 090°45'2 4.4
2017-Nov-18 13:30N 29°35' W 090°43'2 3.8
2017-Nov-18 13:00N 29°37' W 090°42'1 1.0
2017-Nov-18 12:30N 29°37' W 090°42'2 3.6
2017-Nov-18 12:00N 29°36' W 090°40'3 6.0
2017-Nov-18 11:30N 29°35' W 090°37'3 5.9
2017-Nov-18 11:00N 29°34' W 090°34'3 6.1
2017-Nov-18 10:30N 29°34' W 090°30'3 6.3
2017-Nov-18 10:00N 29°33' W 090°27'  
Track history (hours):
 
Tides and Currents Weather Stations Pressure Air Temp Water Temp Dewpoint Dewpoint Depression Visibility Wind Speed Wind Dir Waves Ship Positions

Capt. Troy Green

Owner: Blessey Enterprises, Inc., Harahan, LA. More information available from US FCC via Universal Licensing System and Coast Guard Vessel Documentation Center.

Last reported at 2017-Nov-20 00:27 UTC. Time now 2017-Nov-25 00:12 UTC.
Position N 30°04' W 093°39'.

Length 22 m; draft 2.7 m.

Type: Other ship. MMSI: 367710960.

Date/timePositionNaut miles runAvg speedWind from/ knotsBaromVisibWave heightAir tempDewpointWater temp
2017-Nov-20 00:27N 30°04' W 093°39'5 5.8
2017-Nov-19 23:33N 30°04' W 093°33'0 5.8
2017-Nov-19 23:29N 30°04' W 093°32'3 5.9
2017-Nov-19 23:00N 30°04' W 093°29'3 6.1
2017-Nov-19 22:31N 30°04' W 093°25'3 6.0
2017-Nov-19 22:01N 30°04' W 093°22'2 4.1
2017-Nov-19 21:30N 30°05' W 093°20'2 4.4
2017-Nov-19 21:01N 30°05' W 093°18'1 2.1
2017-Nov-19 20:30N 30°05' W 093°17'0 0.7
2017-Nov-19 20:00N 30°04' W 093°16'0 0.0
2017-Nov-19 19:30N 30°04' W 093°16'0 0.0
2017-Nov-19 19:00N 30°04' W 093°16'0 0.0
2017-Nov-19 18:30N 30°04' W 093°16'0 0.0
2017-Nov-19 18:00N 30°04' W 093°16'0 0.0
2017-Nov-19 17:30N 30°04' W 093°16'0 0.0
2017-Nov-19 17:00N 30°04' W 093°16'0 0.0
2017-Nov-19 16:30N 30°04' W 093°16'1 1.2
2017-Nov-19 15:59N 30°04' W 093°16'0 0.9
2017-Nov-19 15:28N 30°03' W 093°16'1 3.1
2017-Nov-19 15:00N 30°02' W 093°15'3 5.3
2017-Nov-19 14:31N 29°60' W 093°13'1 2.4
2017-Nov-19 14:00N 29°59' W 093°12'2 4.7
2017-Nov-19 13:30N 29°57' W 093°11'3 5.5
2017-Nov-19 13:00N 29°56' W 093°08'40 5.7
2017-Nov-19 06:02N 29°52' W 092°22'1 5.9
2017-Nov-19 05:56N 29°51' W 092°22'3 6.2
2017-Nov-19 05:26N 29°50' W 092°18'3 6.0
2017-Nov-19 05:01N 29°49' W 092°16'3 6.4
2017-Nov-19 04:31N 29°47' W 092°13'1 2.2
2017-Nov-19 04:00N 29°47' W 092°11'1 1.2
2017-Nov-19 03:30N 29°47' W 092°11'3 5.3
2017-Nov-19 03:00N 29°47' W 092°08'3 6.0
2017-Nov-19 02:30N 29°48' W 092°05'3 6.2
2017-Nov-19 02:00N 29°49' W 092°01'3 6.7
2017-Nov-19 01:30N 29°50' W 091°58'54 5.8
2017-Nov-18 16:11N 29°36' W 090°58'1 6.5
2017-Nov-18 16:00N 29°35' W 090°57'3 6.6
2017-Nov-18 15:30N 29°33' W 090°54'3 6.5
2017-Nov-18 14:58N 29°32' W 090°50'3 5.7
2017-Nov-18 14:30N 29°32' W 090°47'2 4.6
2017-Nov-18 14:00N 29°33' W 090°45'2 4.4
2017-Nov-18 13:30N 29°35' W 090°43'2 3.8
2017-Nov-18 13:00N 29°37' W 090°42'1 1.0
2017-Nov-18 12:30N 29°37' W 090°42'2 3.6
2017-Nov-18 12:00N 29°36' W 090°40'3 6.0
2017-Nov-18 11:30N 29°35' W 090°37'3 5.9
2017-Nov-18 11:00N 29°34' W 090°34'3 6.1
2017-Nov-18 10:30N 29°34' W 090°30'3 6.3
2017-Nov-18 10:00N 29°33' W 090°27'  

Dump ship's entire track history